Terminal Aerodrome Forecast
Issued by NWS

Home | Current Version | Previous Version | Text Only | Print | Product List | Glossary On
Versions: 1 2 3 4 5 6 7 8 9 10 11 12 13 14 15
000
FTUS43 KDDC 261120
TAFHYS
TAF
KHYS 261120Z 2612/2712 18008KT P6SM SCT200
     FM261500 22015G23KT P6SM SCT200
     FM261700 26015G23KT P6SM SCT200
     FM262100 27012KT P6SM VCTS SCT200CB
     FM270100 35012KT P6SM VCTS BKN130CB
     FM270300 36013KT P6SM BKN015
     FM270700 36010KT P6SM BKN007=

USA.gov is the U.S. government's official web portal to all federal, state and local government web resources and services.